Archival Weather

NSFA McMurdo Sound

NSFA McMurdo Sound, Antarctica (NZCM)

Report from: Saturday, April 1, 2023 5:55 AM UTC
Current time: Monday, July 22, 2024 11:49 AM UTC

Current weather – Weather history – Daily summaries
Weather forecast

Temperature-20.5°C (-4.9°F)
Wind chill-26.5°C (-15.6°F)
Dew point-24.1°C (-11.4°F)
Winds 4 kts (2.1 m/s, 4.6 mph) Northeast (50°)
Visibility6.2 mi. (10 km)
Clouds Sky clear
Altimeter29.89 in.Hg (1012 mB)
Relative humidity73 %
Density altitude-4,524 ft. (-1,379 m)
Sea-level pressure101.3 kPa (1013 mB, 29.91 in.Hg)
Max temp last 6 hours-15.7°C (3.7°F)
Min temp last 6 hours-23.9°C (-11.0°F)
Remarks Fully automated report
Automated weather observing station with precipitation discriminator
Pressure falling
Flight conditions Visual Meteorological Conditions
Raw dataNZCM 010555Z AUTO 05004KT 9999 CLR M20/M24 A2989 RMK AO2 SLP130 T12051241 11157 21239 57001
An error has occurred. This application may no longer respond until reloaded. Reload 🗙